Capitol Logistics 1171


EBLG
Liège Airport
Liege, BE
EETN
Tallinn Airport
Tallinn, EE

Route Details

Aircraft Information
Primary: Boeing 767-300BDSF
Backup: Not Available
Route Data
Distance: 849nm
Sched. Duration: 2h 00m
Avg. Duration: 2h 21m (+22m)
Times Flown: 10
Recm'd Route: LNO5E LNO M170 NVO UZ706 PIXID GESKA P605 MALIV M611 KOLJA M611 LONSA
Planned Altitude: 35,000ft
Origin Wx: EBLG 250120Z 19019KT 9999 FEW024 14/10 Q1005 TEMPO 20018G28KT
Dest. Wx: EETN 251020Z 25003KT 6000 DZ BKN007 OVC015 07/07 Q1011 R08/290195 TEMPO 4000 BR=
Notes:

Financial History
Total Freight: 986,504lbs
Average Load: 98,650lbs/flt
Fuel Used: 253,685lbs
Avg. Fuel Used: 25,369lbs/flt
Fuel Expense: $281,590
Avg. Fuel Expense: $28,159
Avg. Fuel Cost: $1.11/lbs
Total Gross Income: $1,473,235
Pilot Pay: $1,970
Total Expenses: $155,976
Total Revenue: $1,030,387
Average Revenue: $147,323.53